createdAt,value
2023-02-13T00:00:53.330Z,0.80
2023-02-13T00:03:21.192Z,0.90
2023-02-13T00:05:49.056Z,1.00
2023-02-13T00:08:18.236Z,1.00
2023-02-13T00:10:46.067Z,0.90
2023-02-13T00:13:13.907Z,0.90
2023-02-13T00:15:41.815Z,0.90
2023-02-13T00:18:09.687Z,0.90
2023-02-13T00:20:37.554Z,0.90
2023-02-13T00:23:05.388Z,0.90
2023-02-13T00:25:34.574Z,0.90
2023-02-13T00:28:02.430Z,1.00
2023-02-13T00:30:30.295Z,1.10
2023-02-13T00:32:58.149Z,1.10
2023-02-13T00:35:25.982Z,1.00
2023-02-13T00:37:53.827Z,1.00
2023-02-13T00:40:21.910Z,1.10
2023-02-13T00:42:51.105Z,1.10
2023-02-13T00:45:18.926Z,1.10
2023-02-13T00:47:46.782Z,1.20
2023-02-13T00:50:14.614Z,1.30
2023-02-13T00:52:42.451Z,1.30
2023-02-13T00:55:10.500Z,1.40
2023-02-13T00:57:38.400Z,2.50
2023-02-13T01:00:09.218Z,1.90
2023-02-13T01:02:37.088Z,1.70
2023-02-13T01:05:05.029Z,1.60
2023-02-13T01:07:32.883Z,1.50
2023-02-13T01:10:00.732Z,1.20
2023-02-13T01:12:28.615Z,1.30
2023-02-13T01:14:56.455Z,1.20
2023-02-13T01:17:25.662Z,1.20
2023-02-13T01:19:53.486Z,1.10
2023-02-13T01:22:21.315Z,1.20
2023-02-13T01:24:49.244Z,1.30
2023-02-13T01:27:18.070Z,1.10
2023-02-13T01:29:45.950Z,1.20
2023-02-13T01:32:13.875Z,1.00
2023-02-13T01:34:43.118Z,1.10
2023-02-13T01:37:10.927Z,1.10
2023-02-13T01:39:38.728Z,1.10
2023-02-13T01:42:06.699Z,1.00
2023-02-13T01:44:54.649Z,1.30
2023-02-13T01:47:25.944Z,1.10
2023-02-13T01:50:00.819Z,1.00
2023-02-13T01:52:28.667Z,1.00
2023-02-13T01:54:56.468Z,1.20
2023-02-13T01:57:24.776Z,1.10
2023-02-13T01:59:54.526Z,1.10
2023-02-13T02:02:22.400Z,0.90
2023-02-13T02:04:50.275Z,0.90
2023-02-13T02:07:21.357Z,1.10
2023-02-13T02:09:49.244Z,1.10
2023-02-13T02:12:22.293Z,1.20
2023-02-13T02:14:50.158Z,1.30
2023-02-13T02:17:18.009Z,1.20
2023-02-13T02:19:49.146Z,1.20
2023-02-13T02:22:53.473Z,1.00
2023-02-13T02:25:39.711Z,0.90
2023-02-13T02:28:18.384Z,0.90
2023-02-13T02:31:16.112Z,0.90
2023-02-13T02:33:50.709Z,0.90
2023-02-13T02:36:30.712Z,0.90
2023-02-13T02:39:04.316Z,0.90
2023-02-13T02:41:45.115Z,0.80
2023-02-13T02:44:26.681Z,0.80
2023-02-13T02:47:17.170Z,0.80
2023-02-13T02:49:59.608Z,0.80
2023-02-13T02:52:31.997Z,0.90
2023-02-13T02:55:08.975Z,1.00
2023-02-13T02:57:57.279Z,0.90
2023-02-13T03:00:42.972Z,1.10
2023-02-13T03:03:30.618Z,0.90
2023-02-13T03:06:16.712Z,0.90
2023-02-13T03:09:03.172Z,0.80
2023-02-13T03:11:48.702Z,0.80
2023-02-13T03:14:18.144Z,0.80
2023-02-13T03:17:03.367Z,0.80
2023-02-13T03:19:55.566Z,0.80
2023-02-13T03:22:29.850Z,0.70
2023-02-13T03:25:01.593Z,0.80
2023-02-13T03:27:52.564Z,0.80
2023-02-13T03:30:24.255Z,0.80
2023-02-13T03:32:56.754Z,0.80
2023-02-13T03:35:46.043Z,1.10
2023-02-13T03:38:17.904Z,0.80
2023-02-13T03:41:02.523Z,1.00
2023-02-13T03:43:31.136Z,0.70
2023-02-13T03:46:01.163Z,0.60
2023-02-13T03:48:48.612Z,0.50
2023-02-13T03:51:18.951Z,0.80
2023-02-13T03:53:49.165Z,0.40
2023-02-13T03:56:34.439Z,0.30
2023-02-13T03:59:18.073Z,0.40
2023-02-13T04:01:49.979Z,0.70
2023-02-13T04:04:22.916Z,0.60
2023-02-13T04:06:51.944Z,0.50
2023-02-13T04:09:21.161Z,0.60
2023-02-13T04:11:52.966Z,0.60
2023-02-13T04:14:22.552Z,0.60
2023-02-13T04:16:52.271Z,0.50
2023-02-13T04:19:20.100Z,0.50
2023-02-13T04:21:50.614Z,0.60
2023-02-13T04:24:18.422Z,0.70
2023-02-13T04:26:47.578Z,0.60
2023-02-13T04:29:15.397Z,0.50
2023-02-13T04:31:43.292Z,0.40
2023-02-13T04:34:11.223Z,0.30
2023-02-13T04:36:39.070Z,0.40
2023-02-13T04:39:06.890Z,0.40
2023-02-13T04:41:34.713Z,0.40
2023-02-13T04:44:03.970Z,0.40
2023-02-13T04:46:31.813Z,0.50
2023-02-13T04:48:59.610Z,0.60
2023-02-13T04:51:27.466Z,0.50
2023-02-13T04:53:55.288Z,0.70
2023-02-13T04:56:23.101Z,0.90
2023-02-13T04:58:50.896Z,0.70
2023-02-13T05:01:20.097Z,0.60
2023-02-13T05:03:47.931Z,0.50
2023-02-13T05:06:15.758Z,0.50
2023-02-13T05:08:43.575Z,0.60
2023-02-13T05:11:11.415Z,0.50
2023-02-13T05:13:39.263Z,0.40
2023-02-13T05:16:07.676Z,0.50
2023-02-13T05:18:36.899Z,0.80
2023-02-13T05:21:22.683Z,0.60
2023-02-13T05:23:50.510Z,0.60
2023-02-13T05:26:18.332Z,0.50
2023-02-13T05:29:03.770Z,0.50
2023-02-13T05:31:31.679Z,0.50
2023-02-13T05:34:01.189Z,0.40
2023-02-13T05:36:29.009Z,0.30
2023-02-13T05:38:56.822Z,0.10
2023-02-13T05:41:24.636Z,0.40
2023-02-13T05:43:52.453Z,0.40
2023-02-13T05:46:20.354Z,0.30
2023-02-13T05:48:48.208Z,0.20
2023-02-13T05:51:17.391Z,0.20
2023-02-13T05:53:45.180Z,0.20
2023-02-13T05:56:12.995Z,0.30
2023-02-13T05:58:40.808Z,0.30
2023-02-13T06:01:08.616Z,0.50
2023-02-13T06:03:36.470Z,0.50
2023-02-13T06:06:04.480Z,0.30
2023-02-13T06:08:33.629Z,0.40
2023-02-13T06:11:01.866Z,0.50
2023-02-13T06:13:29.816Z,0.40
2023-02-13T06:15:57.670Z,0.30
2023-02-13T06:18:25.572Z,0.30
2023-02-13T06:20:53.386Z,0.40
2023-02-13T06:23:21.193Z,0.40
2023-02-13T06:25:50.362Z,0.60
2023-02-13T06:28:18.212Z,0.50
2023-02-13T06:30:46.097Z,0.70
2023-02-13T06:33:13.958Z,0.50
2023-02-13T06:35:41.777Z,0.40
2023-02-13T06:38:09.618Z,0.30
2023-02-13T06:40:37.419Z,0.30
2023-02-13T06:43:06.592Z,0.20
2023-02-13T06:45:34.377Z,0.40
2023-02-13T06:48:02.195Z,0.30
2023-02-13T06:50:30.036Z,0.40
2023-02-13T06:52:58.003Z,0.30
2023-02-13T06:55:25.822Z,0.20
2023-02-13T06:57:53.634Z,0.20
2023-02-13T07:00:26.059Z,0.00
2023-02-13T07:02:54.088Z,0.10
2023-02-13T07:05:21.971Z,0.10
2023-02-13T07:07:49.782Z,0.10
2023-02-13T07:10:17.648Z,0.00
2023-02-13T07:12:49.149Z,0.20
2023-02-13T07:15:23.096Z,0.20
2023-02-13T07:17:56.871Z,0.20
2023-02-13T07:20:25.164Z,0.20
2023-02-13T07:22:53.026Z,0.30
2023-02-13T07:25:20.831Z,0.30
2023-02-13T07:27:48.717Z,0.30
2023-02-13T07:30:16.836Z,0.30
2023-02-13T07:32:46.012Z,0.20
2023-02-13T07:35:13.888Z,0.50
2023-02-13T07:37:41.746Z,0.50
2023-02-13T07:40:10.744Z,0.50
2023-02-13T07:42:38.583Z,0.50
2023-02-13T07:45:07.573Z,0.70
2023-02-13T07:47:35.513Z,0.70
2023-02-13T07:50:05.877Z,0.70
2023-02-13T07:52:33.751Z,0.90
2023-02-13T07:55:01.611Z,0.80
2023-02-13T07:57:29.484Z,0.70
2023-02-13T07:59:57.293Z,0.60
2023-02-13T08:02:25.258Z,0.60
2023-02-13T08:04:53.088Z,0.60
2023-02-13T08:07:22.295Z,0.60
2023-02-13T08:10:07.710Z,1.00
2023-02-13T08:12:36.244Z,1.50
2023-02-13T08:15:04.302Z,1.00
2023-02-13T08:17:32.140Z,0.90
2023-02-13T08:19:59.938Z,0.80
2023-02-13T08:22:29.080Z,0.80
2023-02-13T08:24:56.927Z,0.70
2023-02-13T08:27:24.762Z,0.70
2023-02-13T08:29:52.597Z,0.70
2023-02-13T08:32:20.961Z,0.70
2023-02-13T08:34:48.848Z,0.80
2023-02-13T08:37:16.664Z,0.90
2023-02-13T08:39:45.838Z,1.00
2023-02-13T08:42:15.874Z,0.80
2023-02-13T08:44:44.300Z,0.80
2023-02-13T08:47:12.142Z,0.70
2023-02-13T08:49:39.990Z,0.60
2023-02-13T08:52:07.822Z,0.70
2023-02-13T08:54:36.062Z,0.90
2023-02-13T08:57:05.284Z,0.90
2023-02-13T08:59:33.126Z,1.00
2023-02-13T09:02:00.935Z,0.90
2023-02-13T09:04:29.023Z,0.80
2023-02-13T09:06:57.005Z,0.70
2023-02-13T09:09:24.860Z,0.70
2023-02-13T09:11:53.901Z,0.80
2023-02-13T09:14:24.964Z,0.70
2023-02-13T09:16:52.955Z,0.70
2023-02-13T09:19:21.075Z,0.80
2023-02-13T09:21:49.010Z,1.00
2023-02-13T09:24:16.856Z,1.00
2023-02-13T09:26:44.690Z,1.00
2023-02-13T09:29:12.518Z,1.20
2023-02-13T09:31:41.838Z,1.00
2023-02-13T09:34:09.826Z,0.90
2023-02-13T09:36:37.626Z,1.00
2023-02-13T09:39:05.574Z,1.00
2023-02-13T09:41:34.736Z,0.90
2023-02-13T09:44:03.685Z,1.00
2023-02-13T09:46:33.568Z,1.10
2023-02-13T09:49:04.346Z,1.10
2023-02-13T09:51:32.185Z,1.20
2023-02-13T09:54:01.400Z,1.30
2023-02-13T09:56:41.808Z,1.30
2023-02-13T09:59:16.964Z,1.30
2023-02-13T10:01:46.790Z,1.30
2023-02-13T10:04:25.442Z,1.20
2023-02-13T10:06:57.015Z,1.10
2023-02-13T10:09:31.029Z,1.20
2023-02-13T10:12:34.606Z,1.30
2023-02-13T10:15:11.384Z,1.40
2023-02-13T10:17:40.168Z,1.40
2023-02-13T10:20:16.603Z,1.50
2023-02-13T10:22:45.597Z,1.30
2023-02-13T10:25:15.713Z,1.10
2023-02-13T10:27:46.276Z,1.20
2023-02-13T10:30:17.627Z,1.30
2023-02-13T10:32:52.972Z,1.40
2023-02-13T10:35:25.529Z,1.40
2023-02-13T10:37:55.078Z,1.40
2023-02-13T10:40:22.860Z,1.30
2023-02-13T10:42:54.566Z,1.30
2023-02-13T10:45:30.368Z,1.40
2023-02-13T10:48:06.685Z,1.40
2023-02-13T10:50:37.858Z,1.40
2023-02-13T10:53:12.921Z,1.30
2023-02-13T10:56:16.988Z,1.40
2023-02-13T10:58:52.016Z,1.30
2023-02-13T11:01:22.127Z,1.50
2023-02-13T11:04:06.791Z,1.40
2023-02-13T11:06:37.770Z,1.40
2023-02-13T11:09:06.614Z,1.40
2023-02-13T11:11:35.845Z,1.60
2023-02-13T11:14:18.344Z,1.50
2023-02-13T11:16:51.830Z,1.60
2023-02-13T11:19:21.227Z,1.80
2023-02-13T11:21:54.312Z,1.80
2023-02-13T11:24:23.346Z,1.80
2023-02-13T11:26:56.015Z,1.80
2023-02-13T11:29:25.555Z,1.80
2023-02-13T11:32:12.712Z,1.70
2023-02-13T11:34:40.689Z,1.80
2023-02-13T11:37:24.575Z,1.70
2023-02-13T11:39:53.447Z,1.70
2023-02-13T11:42:25.656Z,1.80
2023-02-13T11:44:55.554Z,1.90
2023-02-13T11:47:40.955Z,2.10
2023-02-13T11:50:23.891Z,2.30
2023-02-13T11:52:58.130Z,2.20
2023-02-13T11:55:31.751Z,2.20
2023-02-13T11:58:01.121Z,2.10
2023-02-13T12:00:33.807Z,2.30
2023-02-13T12:03:01.742Z,2.30
2023-02-13T12:05:29.840Z,2.50
2023-02-13T12:08:01.014Z,2.40
2023-02-13T12:10:29.393Z,2.50
2023-02-13T12:12:58.389Z,2.70
2023-02-13T12:15:27.253Z,2.50
2023-02-13T12:18:07.806Z,2.70
2023-02-13T12:20:40.235Z,2.80
2023-02-13T12:23:13.694Z,2.70
2023-02-13T12:25:51.162Z,2.60
2023-02-13T12:28:20.673Z,2.70
2023-02-13T12:31:26.886Z,3.10
2023-02-13T12:34:12.845Z,3.60
2023-02-13T12:36:45.760Z,4.20
2023-02-13T12:39:19.330Z,5.10
2023-02-13T12:41:53.506Z,5.40
2023-02-13T12:44:45.933Z,5.70
2023-02-13T12:47:17.645Z,5.00
2023-02-13T12:50:02.518Z,5.40
2023-02-13T12:52:41.682Z,5.30
2023-02-13T12:55:24.168Z,5.50
2023-02-13T12:57:58.567Z,5.80
2023-02-13T13:00:32.953Z,5.90
2023-02-13T13:03:37.829Z,6.20
2023-02-13T13:06:15.449Z,6.30
2023-02-13T13:09:11.248Z,6.10
2023-02-13T13:11:53.273Z,6.20
2023-02-13T13:14:24.509Z,6.90
2023-02-13T13:16:54.979Z,7.30
2023-02-13T13:19:27.821Z,7.10
2023-02-13T13:21:58.796Z,7.10
2023-02-13T13:24:34.413Z,7.20
2023-02-13T13:27:03.583Z,7.50
2023-02-13T13:29:37.560Z,7.70
2023-02-13T13:32:07.638Z,7.60
2023-02-13T13:34:35.850Z,7.70
2023-02-13T13:37:06.202Z,7.90
2023-02-13T13:39:38.382Z,7.70
2023-02-13T13:42:10.775Z,8.00
2023-02-13T13:45:00.631Z,8.20
2023-02-13T13:47:37.393Z,8.10
2023-02-13T13:50:06.957Z,7.80
2023-02-13T13:52:35.173Z,7.80
2023-02-13T13:55:04.427Z,8.00
2023-02-13T13:58:00.999Z,7.80
2023-02-13T14:00:32.821Z,8.00
2023-02-13T14:03:26.222Z,8.20
2023-02-13T14:06:05.492Z,8.20
2023-02-13T14:09:21.382Z,8.10
2023-02-13T14:11:49.276Z,8.00
2023-02-13T14:14:46.319Z,8.10
2023-02-13T14:17:14.976Z,8.20
2023-02-13T14:19:42.814Z,8.00
2023-02-13T14:22:34.248Z,8.30
2023-02-13T14:25:03.103Z,8.60
2023-02-13T14:27:31.741Z,8.40
2023-02-13T14:30:01.164Z,8.40
2023-02-13T14:32:30.588Z,8.40
2023-02-13T14:35:00.112Z,8.50
2023-02-13T14:37:37.695Z,8.20
2023-02-13T14:40:15.259Z,8.50
2023-02-13T14:42:43.960Z,8.40
2023-02-13T14:45:16.179Z,8.40
2023-02-13T14:47:44.788Z,8.20
2023-02-13T14:50:17.023Z,8.00
2023-02-13T14:52:45.549Z,8.20
2023-02-13T14:55:16.976Z,8.30
2023-02-13T14:57:50.254Z,8.20
2023-02-13T15:00:23.704Z,8.10
2023-02-13T15:02:54.104Z,8.20
2023-02-13T15:05:22.231Z,8.30
2023-02-13T15:07:51.005Z,8.30
2023-02-13T15:10:35.614Z,8.40
2023-02-13T15:13:06.153Z,8.30
2023-02-13T15:15:36.210Z,8.30
2023-02-13T15:18:05.094Z,8.20
2023-02-13T15:20:35.108Z,8.20
2023-02-13T15:23:02.963Z,8.10
2023-02-13T15:25:35.760Z,8.20
2023-02-13T15:28:04.230Z,8.00
2023-02-13T15:30:32.783Z,8.30
2023-02-13T15:33:02.544Z,8.10
2023-02-13T15:35:31.432Z,8.20
2023-02-13T15:37:59.407Z,8.20
2023-02-13T15:40:28.518Z,8.30
2023-02-13T15:42:56.608Z,8.20
2023-02-13T15:45:25.974Z,8.10
2023-02-13T15:47:55.922Z,8.10
2023-02-13T15:50:28.086Z,7.80
2023-02-13T15:52:55.915Z,7.80
2023-02-13T15:55:24.807Z,7.70
2023-02-13T15:57:53.129Z,7.60
2023-02-13T16:00:25.071Z,7.50
2023-02-13T16:02:53.665Z,7.30
2023-02-13T16:05:37.497Z,7.30
2023-02-13T16:08:28.511Z,7.10
2023-02-13T16:11:20.806Z,6.90
2023-02-13T16:13:57.159Z,6.60
2023-02-13T16:16:25.116Z,6.40
2023-02-13T16:18:52.986Z,6.30
2023-02-13T16:21:22.990Z,6.20
2023-02-13T16:23:52.301Z,6.20
2023-02-13T16:26:20.201Z,6.00
2023-02-13T16:28:48.072Z,5.80
2023-02-13T16:31:16.303Z,5.70
2023-02-13T16:33:44.324Z,5.70
2023-02-13T16:36:20.049Z,5.60
2023-02-13T16:38:48.255Z,5.40
2023-02-13T16:41:33.577Z,5.40
2023-02-13T16:44:01.645Z,5.40
2023-02-13T16:46:31.414Z,5.40
2023-02-13T16:49:23.312Z,5.40
2023-02-13T16:51:53.533Z,5.30
2023-02-13T16:54:36.210Z,5.10
2023-02-13T16:57:07.090Z,5.20
2023-02-13T16:59:39.681Z,5.20
2023-02-13T17:02:18.808Z,5.00
2023-02-13T17:04:48.097Z,5.00
2023-02-13T17:07:17.720Z,4.90
2023-02-13T17:09:45.577Z,4.90
2023-02-13T17:12:16.452Z,4.80
2023-02-13T17:14:44.370Z,4.70
2023-02-13T17:17:16.319Z,4.60
2023-02-13T17:19:44.246Z,4.50
2023-02-13T17:22:30.502Z,4.40
2023-02-13T17:24:58.591Z,4.50
2023-02-13T17:27:28.061Z,4.30
2023-02-13T17:29:55.909Z,4.10
2023-02-13T17:32:25.615Z,4.00
2023-02-13T17:34:53.544Z,3.80
2023-02-13T17:37:22.847Z,3.70
2023-02-13T17:39:50.881Z,3.60
2023-02-13T17:42:21.117Z,3.50
2023-02-13T17:44:50.318Z,3.40
2023-02-13T17:47:19.906Z,3.30
2023-02-13T17:49:47.854Z,3.40
2023-02-13T17:52:17.115Z,3.40
2023-02-13T17:54:45.298Z,3.30
2023-02-13T17:57:13.553Z,3.20
2023-02-13T17:59:41.391Z,3.20
2023-02-13T18:02:17.997Z,3.10
2023-02-13T18:04:45.854Z,3.00
2023-02-13T18:07:14.227Z,2.90
2023-02-13T18:09:42.097Z,2.90
2023-02-13T18:12:13.342Z,3.10
2023-02-13T18:14:41.206Z,3.00
2023-02-13T18:17:09.175Z,2.90
2023-02-13T18:19:38.379Z,2.80
2023-02-13T18:22:06.709Z,2.70
2023-02-13T18:24:35.112Z,2.60
2023-02-13T18:27:04.369Z,2.50
2023-02-13T18:29:32.185Z,2.40
2023-02-13T18:32:00.126Z,2.30
2023-02-13T18:34:28.068Z,2.30
2023-02-13T18:36:57.270Z,2.60
2023-02-13T18:39:25.070Z,2.50
2023-02-13T18:41:52.942Z,2.40
2023-02-13T18:44:28.405Z,2.30
2023-02-13T18:46:56.603Z,2.10
2023-02-13T18:49:24.418Z,2.00
2023-02-13T18:51:52.251Z,1.90
2023-02-13T18:54:22.098Z,1.80
2023-02-13T18:56:49.949Z,1.80
2023-02-13T18:59:18.530Z,1.70
2023-02-13T19:01:46.708Z,1.60
2023-02-13T19:04:14.572Z,1.60
2023-02-13T19:06:43.124Z,1.50
2023-02-13T19:09:10.951Z,1.50
2023-02-13T19:11:40.766Z,1.50
2023-02-13T19:14:08.644Z,1.50
2023-02-13T19:16:36.699Z,1.40
2023-02-13T19:19:05.526Z,1.40
2023-02-13T19:21:35.625Z,1.30
2023-02-13T19:24:03.723Z,1.30
2023-02-13T19:26:31.565Z,1.30
2023-02-13T19:29:00.731Z,1.30
2023-02-13T19:31:29.476Z,1.30
2023-02-13T19:33:57.386Z,1.30
2023-02-13T19:36:26.746Z,1.20
2023-02-13T19:38:55.401Z,1.10
2023-02-13T19:41:23.329Z,1.10
2023-02-13T19:43:53.410Z,1.00
2023-02-13T19:46:23.713Z,0.90
2023-02-13T19:48:51.930Z,1.00
2023-02-13T19:51:21.096Z,0.90
2023-02-13T19:53:48.931Z,0.80
2023-02-13T19:56:16.845Z,0.80
2023-02-13T19:58:44.744Z,0.80
2023-02-13T20:01:13.630Z,1.10
2023-02-13T20:03:42.996Z,0.90
2023-02-13T20:06:11.810Z,0.70
2023-02-13T20:08:41.928Z,0.70
2023-02-13T20:11:10.722Z,0.70
2023-02-13T20:13:38.598Z,0.70
2023-02-13T20:16:06.919Z,0.50
2023-02-13T20:18:35.281Z,0.50
2023-02-13T20:21:07.513Z,0.50
2023-02-13T20:23:35.532Z,0.60
2023-02-13T20:26:06.682Z,0.60
2023-02-13T20:28:34.544Z,0.80
2023-02-13T20:31:03.879Z,0.70
2023-02-13T20:33:32.054Z,0.70
2023-02-13T20:35:59.887Z,0.80
2023-02-13T20:38:29.082Z,0.90
2023-02-13T20:40:57.597Z,0.60
2023-02-13T20:43:25.926Z,0.50
2023-02-13T20:45:55.599Z,0.50
2023-02-13T20:48:23.493Z,0.30
2023-02-13T20:50:58.507Z,0.20
2023-02-13T20:53:26.583Z,0.20
2023-02-13T20:55:55.750Z,0.00
2023-02-13T20:58:23.638Z,0.10
2023-02-13T21:00:51.477Z,0.10
2023-02-13T21:03:19.354Z,1.20
2023-02-13T21:05:47.236Z,1.60
2023-02-13T21:08:15.069Z,0.80
2023-02-13T21:10:42.911Z,0.50
2023-02-13T21:13:12.217Z,0.40
2023-02-13T21:15:40.098Z,0.20
2023-02-13T21:18:09.074Z,0.30
2023-02-13T21:20:37.457Z,0.20
2023-02-13T21:23:05.401Z,-0.20
2023-02-13T21:25:33.944Z,-0.30
2023-02-13T21:28:01.785Z,-0.60
2023-02-13T21:30:30.977Z,-0.60
2023-02-13T21:32:58.820Z,-0.50
2023-02-13T21:35:26.754Z,-0.60
2023-02-13T21:37:54.623Z,-0.50
2023-02-13T21:40:22.451Z,-0.40
2023-02-13T21:42:52.966Z,-0.60
2023-02-13T21:45:20.795Z,-0.50
2023-02-13T21:47:49.950Z,-0.50
2023-02-13T21:50:17.879Z,-0.60
2023-02-13T21:52:45.721Z,-0.70
2023-02-13T21:55:13.590Z,-0.70
2023-02-13T21:57:41.432Z,-0.50
2023-02-13T22:00:10.584Z,-0.50
2023-02-13T22:02:39.167Z,-0.60
2023-02-13T22:05:08.935Z,-0.60
2023-02-13T22:07:56.822Z,-0.50
2023-02-13T22:10:24.684Z,-0.60
2023-02-13T22:12:53.370Z,-0.80
2023-02-13T22:15:21.441Z,-0.40
2023-02-13T22:17:49.257Z,-0.50
2023-02-13T22:20:18.880Z,-0.60
2023-02-13T22:22:46.704Z,-0.50
2023-02-13T22:25:14.529Z,-0.60
2023-02-13T22:27:46.881Z,-0.60
2023-02-13T22:30:15.138Z,-0.50
2023-02-13T22:32:43.015Z,-0.60
2023-02-13T22:35:10.872Z,-0.50
2023-02-13T22:37:40.045Z,-0.10
2023-02-13T22:40:08.618Z,-0.30
2023-02-13T22:42:36.450Z,-0.50
2023-02-13T22:45:04.466Z,-0.60
2023-02-13T22:47:32.288Z,-0.70
2023-02-13T22:50:00.139Z,-0.80
2023-02-13T22:52:27.982Z,-0.80
2023-02-13T22:54:57.173Z,-0.70
2023-02-13T22:57:25.061Z,-0.70
2023-02-13T22:59:52.920Z,-0.70
2023-02-13T23:02:20.788Z,-0.80
2023-02-13T23:04:48.688Z,-0.80
2023-02-13T23:07:18.280Z,-0.80
2023-02-13T23:09:46.256Z,-0.70
2023-02-13T23:12:32.955Z,-0.60
2023-02-13T23:15:00.772Z,-0.60
2023-02-13T23:17:46.290Z,-0.70
2023-02-13T23:20:14.278Z,-0.60
2023-02-13T23:22:42.068Z,-0.60
2023-02-13T23:25:09.930Z,-0.70
2023-02-13T23:27:39.116Z,-0.70
2023-02-13T23:30:08.369Z,-0.90
2023-02-13T23:32:36.189Z,-0.90
2023-02-13T23:35:04.019Z,-0.90
2023-02-13T23:37:31.847Z,-0.60
2023-02-13T23:39:59.645Z,-0.40
2023-02-13T23:42:27.441Z,-0.50
2023-02-13T23:44:56.569Z,-0.50
2023-02-13T23:47:24.389Z,-0.50
2023-02-13T23:49:52.303Z,-0.60
2023-02-13T23:52:20.145Z,-0.70
2023-02-13T23:54:47.936Z,-0.70
2023-02-13T23:57:15.776Z,-0.80
2023-02-13T23:59:43.598Z,-0.70
